Hlavní strana
METAR-TAF:

METAR-TAF

Letiště :

Pryor Field Regional Airport

Decatur, Alabama, Spojené státy americké

zeměpisná šířka: 34-39-29N, zeměpisná délka: 086-56-36W, výška: 180 m

Aktuální stav počasí

Zpráva byla vytvořena před 20 minutami, v 04:53 UTC
Západní vítr 4 kt
Teplota 24°C
Vlhkost vzduchu 83%
Tlak 1017 hPa
Viditelnost: 14.5 km
Zataženo ve výšce 7000 ft

METAR: KDCU 220453Z AUTO 27004KT 9SM OVC070 24/21 A3004 RMK AO2 SLP165 T02390206

Čas: 00:13 (05:13 UTC)


TAF: chybějící

Stav a předpovědi počasí z více než 4 000 letišť (zprávy METAR a TAF).

Červené a žluté tečky na mapě představují dostupné meteorologické stanice.

Když kurzor umístíte na tečku, zobrazí se název stanice.

Pak kliknutím zobrazíte stav a předpověď počasí.

Chcete-li změnit mapu, kliknutím na zelené tlačítko se znaménkem +mapu přiblížíte, kliknutím na zelené tlačítko se znaménkem – mapu oddálíte a kliknutím na zelené šipky přejdete na sousední mapy.


METAR-TAF: